Time;durP1;ratioP1;P1;durP2;ratioP2;P2;SDS_P1;SDS_P2;PMS_P1;PMS_P2;Temp;Humidity;BMP_temperature;BMP_pressure;BME280_temperature;BME280_humidity;BME280_pressure;Samples;Min_cycle;Max_cycle;Signal;HPM_P1;HPM_P2
2021/12/22 00:00:39;;;;;;;10.43;3.87;;;-17.40;87.50;;;;;;5052935;28;20383;-79
2021/12/22 00:03:07;;;;;;;8.80;3.93;;;-17.40;87.50;;;;;;5053863;28;20024;-79
2021/12/22 00:05:37;;;;;;;9.40;4.80;;;-17.40;87.60;;;;;;5052451;28;20389;-78
2021/12/22 00:08:03;;;;;;;6.18;2.90;;;-17.40;87.70;;;;;;5034446;28;20030;-78
2021/12/22 00:10:29;;;;;;;6.32;3.28;;;-17.40;87.70;;;;;;5042064;28;20037;-78
2021/12/22 00:12:55;;;;;;;4.20;3.60;;;-17.40;87.70;;;;;;5052619;28;20036;-80
2021/12/22 00:15:21;;;;;;;5.50;3.00;;;-17.40;87.70;;;;;;5053880;28;20363;-78
2021/12/22 00:17:47;;;;;;;6.40;3.75;;;-17.40;87.60;;;;;;5053726;28;20031;-78
2021/12/22 00:20:14;;;;;;;4.35;3.38;;;-17.50;87.70;;;;;;5038222;28;20044;-79
2021/12/22 00:22:40;;;;;;;7.47;5.75;;;-17.50;87.60;;;;;;5033693;28;20018;-79
2021/12/22 00:25:07;;;;;;;3.60;2.75;;;-17.50;87.60;;;;;;5033593;28;20108;-81
2021/12/22 00:27:33;;;;;;;15.27;3.25;;;-17.50;87.50;;;;;;5033468;28;20025;-80
2021/12/22 00:29:58;;;;;;;10.47;5.40;;;-17.50;87.60;;;;;;5033589;28;20505;-79
2021/12/22 00:32:27;;;;;;;4.30;3.07;;;-17.60;87.60;;;;;;5032256;28;20324;-81
2021/12/22 00:34:53;;;;;;;5.82;2.50;;;-17.50;87.60;;;;;;5033397;28;20025;-79
2021/12/22 00:37:23;;;;;;;6.53;3.67;;;-17.60;87.60;;;;;;5034036;28;20072;-80
2021/12/22 00:39:50;;;;;;;8.07;3.30;;;-17.60;87.60;;;;;;5033574;28;20040;-79
2021/12/22 00:42:16;;;;;;;6.53;3.35;;;-17.60;87.50;;;;;;5033043;28;20049;-81
2021/12/22 00:44:46;;;;;;;5.35;4.13;;;-17.60;87.40;;;;;;5033439;28;20105;-79
2021/12/22 00:47:12;;;;;;;4.25;2.58;;;-17.60;87.40;;;;;;5033567;28;20021;-79
2021/12/22 00:49:38;;;;;;;3.03;1.98;;;-17.60;87.50;;;;;;5033844;28;20036;-83
2021/12/22 00:52:04;;;;;;;6.57;4.60;;;-17.60;87.50;;;;;;5033276;28;20030;-78
2021/12/22 00:54:30;;;;;;;8.90;4.32;;;-17.60;87.50;;;;;;5037146;28;20505;-79
2021/12/22 00:57:02;;;;;;;11.85;3.72;;;-17.60;87.50;;;;;;5037000;28;20065;-79
2021/12/22 00:59:28;;;;;;;6.80;3.65;;;-17.70;87.40;;;;;;5037198;28;20415;-78
2021/12/22 01:01:54;;;;;;;5.05;3.28;;;-17.60;87.50;;;;;;5036987;28;20522;-79
2021/12/22 01:04:20;;;;;;;8.27;4.13;;;-17.60;87.70;;;;;;5036751;28;20117;-78
2021/12/22 01:06:46;;;;;;;8.73;3.73;;;-17.70;87.70;;;;;;5035550;28;20032;-81
2021/12/22 01:09:12;;;;;;;7.32;3.00;;;-17.60;87.90;;;;;;5036709;28;20053;-79
2021/12/22 01:11:38;;;;;;;6.20;3.47;;;-17.60;87.90;;;;;;5053879;28;20116;-82
2021/12/22 01:14:04;;;;;;;3.40;3.10;;;-17.60;88.00;;;;;;5056588;28;20028;-80
2021/12/22 01:16:31;;;;;;;5.68;3.67;;;-17.50;87.90;;;;;;5056902;28;20029;-80
2021/12/22 01:19:01;;;;;;;7.55;4.35;;;-17.50;87.70;;;;;;5052220;28;20113;-77
2021/12/22 01:26:45;;;;;;;4.97;3.80;;;-17.60;86.80;;;;;;5036939;28;20065;-82
2021/12/22 01:29:13;;;;;;;6.20;4.25;;;-17.70;86.80;;;;;;5036589;28;20018;-78
2021/12/22 01:31:41;;;;;;;7.70;4.30;;;-17.70;86.90;;;;;;5036272;28;20037;-79
2021/12/22 01:34:08;;;;;;;4.50;2.67;;;-17.80;86.80;;;;;;5036411;28;20075;-80
2021/12/22 01:36:34;;;;;;;17.90;6.22;;;-17.80;86.90;;;;;;5052250;28;20130;-80
2021/12/22 01:39:00;;;;;;;7.47;2.58;;;-17.80;87.10;;;;;;5051947;28;20116;-78
2021/12/22 01:41:25;;;;;;;6.80;4.30;;;-17.90;87.10;;;;;;5036169;28;20083;-78
2021/12/22 01:43:51;;;;;;;17.92;4.50;;;-17.90;87.20;;;;;;5036348;28;20500;-78
2021/12/22 01:49:10;;;;;;;8.93;3.35;;;-17.90;87.40;;;;;;5036318;28;20155;-78
2021/12/22 01:51:41;;;;;;;9.02;4.30;;;-17.90;87.40;;;;;;5036473;28;20030;-80
2021/12/22 01:54:19;;;;;;;9.85;4.20;;;-17.90;87.50;;;;;;5036699;28;20021;-79
2021/12/22 01:56:47;;;;;;;6.45;3.80;;;-17.90;87.60;;;;;;5038671;28;20025;-79
2021/12/22 01:59:14;;;;;;;7.82;3.90;;;-17.90;87.60;;;;;;5041099;28;20029;-79
2021/12/22 02:01:40;;;;;;;6.88;4.22;;;-17.90;87.80;;;;;;5036037;28;20028;-79
2021/12/22 02:04:10;;;;;;;6.83;3.10;;;-17.90;87.70;;;;;;5039129;28;20134;-81
2021/12/22 02:06:41;;;;;;;9.00;3.10;;;-17.90;88.00;;;;;;5040155;28;20635;-81
2021/12/22 02:09:08;;;;;;;4.50;2.88;;;-17.90;88.20;;;;;;5036751;28;20105;-80
2021/12/22 02:11:34;;;;;;;6.70;4.75;;;-17.90;88.30;;;;;;5052999;28;20083;-78
2021/12/22 02:14:03;;;;;;;7.75;4.20;;;-17.80;88.30;;;;;;5055807;28;20421;-80
2021/12/22 02:16:31;;;;;;;7.35;5.07;;;-17.80;88.30;;;;;;5050900;28;20025;-80
2021/12/22 02:18:58;;;;;;;7.82;5.07;;;-17.80;88.20;;;;;;5035505;28;20040;-79
2021/12/22 02:21:27;;;;;;;5.57;2.97;;;-17.80;88.00;;;;;;5036137;28;20040;-80
2021/12/22 02:23:53;;;;;;;3.72;3.15;;;-17.80;87.70;;;;;;5036086;28;20017;-81
2021/12/22 02:26:26;;;;;;;4.60;2.17;;;-17.80;87.70;;;;;;5036519;28;20060;-81
2021/12/22 02:29:03;;;;;;;7.22;2.75;;;-17.80;87.70;;;;;;5048155;28;20060;-78
2021/12/22 02:31:32;;;;;;;8.13;5.28;;;-17.80;87.70;;;;;;5042700;28;20038;-77
2021/12/22 02:33:59;;;;;;;3.78;3.10;;;-17.80;87.60;;;;;;5036060;28;20490;-81
2021/12/22 02:36:29;;;;;;;3.95;3.42;;;-17.80;87.50;;;;;;5035480;28;20068;-80
2021/12/22 02:38:59;;;;;;;7.30;4.68;;;-17.80;87.20;;;;;;5036516;28;20087;-81
2021/12/22 02:41:30;;;;;;;6.85;3.97;;;-17.90;86.90;;;;;;5035704;28;20046;-79
2021/12/22 02:43:58;;;;;;;8.43;3.92;;;-17.90;86.80;;;;;;5035618;28;20075;-83
2021/12/22 02:46:33;;;;;;;7.30;3.90;;;-18.00;86.90;;;;;;5035648;28;20056;-78
2021/12/22 02:49:01;;;;;;;6.20;3.00;;;-18.00;87.40;;;;;;5035959;28;20030;-79
2021/12/22 02:51:28;;;;;;;4.15;2.85;;;-18.00;87.60;;;;;;5036517;28;20064;-81
2021/12/22 02:56:38;;;;;;;3.17;2.83;;;-18.00;87.70;;;;;;5035369;28;20080;-81
2021/12/22 02:59:18;;;;;;;4.10;3.42;;;-18.00;87.70;;;;;;5035194;28;20025;-81
2021/12/22 03:04:19;;;;;;;3.80;3.45;;;-18.00;87.70;;;;;;5035505;28;20030;-79
2021/12/22 03:09:21;;;;;;;6.13;3.17;;;-18.00;87.80;;;;;;5034844;28;20498;-77
2021/12/22 03:11:48;;;;;;;2.92;2.58;;;-18.00;87.90;;;;;;5053159;28;20102;-76
2021/12/22 03:14:15;;;;;;;11.25;5.38;;;-17.90;88.20;;;;;;5054434;28;20201;-78
2021/12/22 03:16:42;;;;;;;12.30;4.30;;;-17.90;88.30;;;;;;5036270;28;20540;-76
2021/12/22 03:19:19;;;;;;;9.60;4.45;;;-17.90;88.10;;;;;;5033490;28;20022;-80
2021/12/22 03:21:47;;;;;;;5.80;3.88;;;-17.80;88.10;;;;;;5034367;28;20029;-78
2021/12/22 03:24:14;;;;;;;4.22;2.30;;;-17.80;88.10;;;;;;5034575;28;20025;-81
2021/12/22 03:26:44;;;;;;;8.10;4.40;;;-17.80;88.00;;;;;;5034558;28;20025;-81
2021/12/22 03:29:12;;;;;;;7.13;4.20;;;-17.80;88.10;;;;;;5034834;28;20022;-79
2021/12/22 03:31:38;;;;;;;6.50;4.72;;;-17.70;88.10;;;;;;5034436;28;20041;-82
2021/12/22 03:34:05;;;;;;;7.43;3.30;;;-17.80;87.80;;;;;;5034976;28;20029;-80
2021/12/22 03:36:32;;;;;;;9.63;3.65;;;-17.70;87.90;;;;;;5034861;28;20052;-82
2021/12/22 03:38:58;;;;;;;7.03;5.40;;;-17.70;88.00;;;;;;5034593;28;20028;-80
2021/12/22 03:41:24;;;;;;;13.07;5.53;;;-17.70;88.10;;;;;;5034476;28;20108;-80
2021/12/22 03:43:50;;;;;;;9.77;5.68;;;-17.70;88.10;;;;;;5034383;28;20021;-82
2021/12/22 03:46:15;;;;;;;10.27;5.53;;;-17.60;87.90;;;;;;5034394;28;20032;-80
2021/12/22 03:48:42;;;;;;;5.37;4.43;;;-17.60;87.80;;;;;;5033127;28;20116;-82
2021/12/22 03:51:08;;;;;;;6.95;4.68;;;-17.60;87.90;;;;;;5033733;28;20802;-79
2021/12/22 03:53:34;;;;;;;10.85;5.55;;;-17.60;88.00;;;;;;5033983;28;20040;-80
2021/12/22 03:56:00;;;;;;;5.55;4.50;;;-17.50;87.90;;;;;;5034345;28;20040;-80
2021/12/22 03:58:26;;;;;;;11.18;6.82;;;-17.50;87.90;;;;;;5034143;28;20033;-81
2021/12/22 04:00:55;;;;;;;8.57;5.80;;;-17.50;88.00;;;;;;5033809;28;20028;-79
2021/12/22 04:03:23;;;;;;;13.43;5.75;;;-17.50;87.90;;;;;;5033881;28;20083;-80
2021/12/22 04:05:49;;;;;;;8.38;5.80;;;-17.40;87.90;;;;;;5032293;28;20406;-80
2021/12/22 04:08:18;;;;;;;2.70;2.28;;;-17.40;87.50;;;;;;5034059;28;20506;-78
2021/12/22 04:10:49;;;;;;;6.78;6.20;;;-17.40;87.30;;;;;;5043808;28;20036;-78
2021/12/22 04:13:15;;;;;;;6.60;4.88;;;-17.50;87.00;;;;;;5055687;28;20049;-77
2021/12/22 04:15:42;;;;;;;10.85;3.92;;;-17.50;86.90;;;;;;5036604;28;20021;-80
2021/12/22 04:18:08;;;;;;;6.97;3.70;;;-17.50;86.90;;;;;;5033767;28;20029;-78
2021/12/22 04:20:34;;;;;;;11.90;6.38;;;-17.60;86.60;;;;;;5033327;28;20068;-79
2021/12/22 04:23:01;;;;;;;12.83;7.60;;;-17.60;86.60;;;;;;5034205;28;20026;-79
2021/12/22 04:25:28;;;;;;;10.73;5.13;;;-17.60;86.70;;;;;;5032388;28;20609;-80
2021/12/22 04:27:56;;;;;;;;;;;-17.70;86.80;;;;;;5033049;28;20379;-78
2021/12/22 04:30:23;;;;;;;13.25;7.57;;;-17.70;87.00;;;;;;5033580;28;20399;-78
2021/12/22 04:32:50;;;;;;;13.75;6.25;;;-17.70;86.90;;;;;;5034084;28;20477;-80
2021/12/22 04:35:16;;;;;;;8.85;4.25;;;-17.70;86.70;;;;;;5033699;28;20387;-81
2021/12/22 04:37:42;;;;;;;5.82;3.97;;;-17.70;86.70;;;;;;5033124;28;20022;-79
2021/12/22 04:40:09;;;;;;;8.80;5.72;;;-17.80;86.60;;;;;;5033554;28;20087;-81
2021/12/22 04:42:35;;;;;;;8.43;5.65;;;-17.80;86.70;;;;;;5033689;28;20044;-80
2021/12/22 04:45:04;;;;;;;10.10;6.00;;;-17.80;87.00;;;;;;5033415;28;20033;-79
2021/12/22 04:47:31;;;;;;;5.35;4.50;;;-17.80;87.10;;;;;;5033728;28;20030;-79
2021/12/22 04:49:56;;;;;;;11.18;6.88;;;-17.80;87.30;;;;;;5035719;28;20040;-79
2021/12/22 04:52:25;;;;;;;19.63;7.27;;;-17.80;87.40;;;;;;5037247;28;20539;-80
2021/12/22 04:55:03;;;;;;;5.15;2.65;;;-17.80;87.30;;;;;;5033232;28;20047;-82
2021/12/22 04:57:30;;;;;;;7.70;3.92;;;-17.80;87.20;;;;;;5033065;28;20033;-80
2021/12/22 04:59:56;;;;;;;8.15;5.30;;;-17.80;87.20;;;;;;5033880;28;20101;-83
2021/12/22 05:02:22;;;;;;;4.68;3.42;;;-17.80;87.30;;;;;;5033722;28;20049;-80
2021/12/22 05:04:48;;;;;;;7.70;3.72;;;-17.80;87.50;;;;;;5033459;28;20025;-80
2021/12/22 05:07:13;;;;;;;8.03;4.73;;;-17.80;87.50;;;;;;5033421;28;20029;-82
2021/12/22 05:09:39;;;;;;;6.60;4.77;;;-17.80;87.50;;;;;;5034781;28;20021;-79
2021/12/22 05:12:06;;;;;;;10.97;6.70;;;-17.80;87.50;;;;;;5052333;28;20406;-80
2021/12/22 05:14:31;;;;;;;11.73;5.15;;;-17.90;87.30;;;;;;5033781;28;20266;-82
2021/12/22 05:17:03;;;;;;;3.67;3.37;;;-17.90;87.40;;;;;;5033568;28;20033;-79
2021/12/22 05:19:29;;;;;;;12.70;6.80;;;-17.90;87.30;;;;;;5033160;28;20064;-83
2021/12/22 05:21:55;;;;;;;4.60;3.15;;;-17.90;87.30;;;;;;5033572;28;20029;-80
2021/12/22 05:24:21;;;;;;;5.30;3.90;;;-17.90;87.40;;;;;;5033213;28;20026;-79
2021/12/22 05:26:47;;;;;;;10.23;5.00;;;-17.90;87.40;;;;;;5038396;28;20048;-80
2021/12/22 05:29:13;;;;;;;14.20;6.53;;;-17.90;87.30;;;;;;5036499;28;20033;-80
2021/12/22 05:31:39;;;;;;;6.07;3.23;;;-17.90;87.40;;;;;;5044463;28;20555;-82
2021/12/22 05:34:05;;;;;;;6.97;4.25;;;-17.90;87.50;;;;;;5052063;28;20021;-79
2021/12/22 05:36:31;;;;;;;12.32;6.30;;;-17.90;87.50;;;;;;5052836;28;20407;-81
2021/12/22 05:38:57;;;;;;;6.05;4.18;;;-17.90;87.60;;;;;;5054580;28;20032;-78
2021/12/22 05:41:24;;;;;;;7.55;3.60;;;-17.90;87.70;;;;;;5057778;28;20490;-82
2021/12/22 05:43:50;;;;;;;4.97;3.08;;;-17.90;87.90;;;;;;5056804;28;20100;-83
2021/12/22 05:46:16;;;;;;;7.60;4.95;;;-17.90;87.90;;;;;;5046418;28;20018;-80
2021/12/22 05:48:44;;;;;;;14.38;6.05;;;-17.90;87.90;;;;;;5035279;28;20032;-80
2021/12/22 05:51:10;;;;;;;10.00;6.00;;;-17.90;87.90;;;;;;5036459;28;20460;-80
2021/12/22 05:53:36;;;;;;;6.88;4.80;;;-17.90;87.90;;;;;;5036838;28;20021;-81
2021/12/22 05:56:02;;;;;;;10.05;6.03;;;-17.90;87.80;;;;;;5036819;28;20036;-83
2021/12/22 05:58:28;;;;;;;7.22;4.90;;;-17.90;87.60;;;;;;5036545;28;20017;-78
2021/12/22 06:00:54;;;;;;;4.85;4.18;;;-17.90;87.50;;;;;;5036533;28;20501;-80
2021/12/22 06:03:20;;;;;;;9.32;6.30;;;-17.90;87.50;;;;;;5036940;28;20425;-83
2021/12/22 06:05:46;;;;;;;17.27;8.60;;;-17.90;87.50;;;;;;5036281;28;20108;-81
2021/12/22 06:08:12;;;;;;;19.57;8.07;;;-17.90;87.50;;;;;;5035253;28;20281;-79
2021/12/22 06:10:38;;;;;;;5.70;4.43;;;-18.00;87.20;;;;;;5055236;28;20036;-82
2021/12/22 06:13:09;;;;;;;10.53;6.17;;;-18.00;87.00;;;;;;5037076;28;20444;-82
2021/12/22 06:15:37;;;;;;;15.77;6.90;;;-18.00;87.10;;;;;;5036690;28;20321;-83
2021/12/22 06:18:04;;;;;;;7.88;5.43;;;-18.00;87.20;;;;;;5036751;28;20030;-79
2021/12/22 06:20:30;;;;;;;;;;;-18.00;87.30;;;;;;5041003;28;20026;-82
2021/12/22 06:22:56;;;;;;;;;;;-18.00;87.40;;;;;;5043201;28;20295;-80
2021/12/22 06:25:23;;;;;;;10.85;5.18;;;-18.00;87.30;;;;;;5038846;28;19912;-79
2021/12/22 06:27:49;;;;;;;10.15;5.43;;;-18.10;87.10;;;;;;5037576;28;20386;-81
2021/12/22 06:30:20;;;;;;;14.15;8.23;;;-18.10;87.70;;;;;;5036500;28;20037;-80
2021/12/22 06:32:50;;;;;;;8.57;5.43;;;-18.00;87.20;;;;;;5037110;28;20103;-79
2021/12/22 06:35:17;;;;;;;10.27;5.70;;;-18.10;87.30;;;;;;5035330;28;20402;-79
2021/12/22 06:37:44;;;;;;;11.85;6.65;;;-18.00;87.40;;;;;;5036880;28;20026;-80
2021/12/22 06:40:10;;;;;;;11.63;7.45;;;-18.10;87.40;;;;;;5037397;28;20143;-81
2021/12/22 06:42:38;;;;;;;10.02;6.50;;;-18.00;87.50;;;;;;5037582;28;20153;-80
2021/12/22 06:45:05;;;;;;;14.00;10.95;;;-18.00;87.40;;;;;;5038371;28;20482;-80
2021/12/22 06:47:31;;;;;;;6.93;5.05;;;-18.00;88.10;;;;;;5037271;28;20022;-81
2021/12/22 06:49:57;;;;;;;10.07;5.72;;;-18.00;87.40;;;;;;5036746;28;20032;-82
2021/12/22 06:52:23;;;;;;;9.15;6.50;;;-18.00;87.50;;;;;;5035310;28;20105;-83
2021/12/22 06:54:49;;;;;;;4.88;4.45;;;-18.00;87.40;;;;;;5035398;28;20022;-80
2021/12/22 06:57:19;;;;;;;13.23;5.70;;;-18.00;87.50;;;;;;5036013;28;20099;-82
2021/12/22 06:59:44;;;;;;;11.75;7.05;;;-18.00;87.40;;;;;;5038014;28;20270;-80
2021/12/22 07:02:10;;;;;;;17.13;8.33;;;-18.00;87.40;;;;;;5055722;28;20437;-85
2021/12/22 07:04:36;;;;;;;8.57;6.80;;;-18.00;87.30;;;;;;5056405;28;20258;-82
2021/12/22 07:07:02;;;;;;;6.27;4.60;;;-18.00;86.70;;;;;;5056679;28;20486;-80
2021/12/22 07:09:28;;;;;;;9.65;5.03;;;-18.00;86.60;;;;;;5045053;28;20033;-83
2021/12/22 07:11:54;;;;;;;10.47;7.37;;;-18.10;86.60;;;;;;5054935;28;20104;-81
2021/12/22 07:14:20;;;;;;;14.13;5.73;;;-18.10;86.60;;;;;;5036950;28;20044;-81
2021/12/22 07:16:46;;;;;;;11.70;5.75;;;-18.10;86.70;;;;;;5037216;28;20424;-82
2021/12/22 07:19:12;;;;;;;15.95;6.38;;;-18.10;86.70;;;;;;5034648;28;20030;-83
2021/12/22 07:21:38;;;;;;;6.65;4.75;;;-18.10;86.90;;;;;;5036351;28;20056;-82
2021/12/22 07:24:05;;;;;;;12.30;7.35;;;-18.10;86.60;;;;;;5037740;28;20025;-84
2021/12/22 07:26:31;;;;;;;;;;;-18.10;86.50;;;;;;5035743;28;20075;-82
2021/12/22 07:28:57;;;;;;;8.30;6.25;;;-18.10;86.30;;;;;;5036451;28;20324;-81
2021/12/22 07:31:23;;;;;;;11.10;4.85;;;-18.10;86.00;;;;;;5035862;28;20113;-83
2021/12/22 07:33:58;;;;;;;10.05;5.93;;;-18.10;86.00;;;;;;5035476;28;20021;-82
2021/12/22 07:36:24;;;;;;;9.47;3.20;;;-18.10;86.10;;;;;;5036294;28;20018;-82
2021/12/22 07:39:03;;;;;;;12.33;7.03;;;-18.20;86.10;;;;;;5035357;28;20063;-82
2021/12/22 07:41:30;;;;;;;14.13;5.93;;;-18.10;86.40;;;;;;5036055;28;20293;-82
2021/12/22 07:43:56;;;;;;;8.68;5.40;;;-18.10;86.60;;;;;;5036751;28;20017;-82
2021/12/22 07:46:22;;;;;;;11.52;5.55;;;-18.10;86.40;;;;;;5038422;28;20382;-83
2021/12/22 07:48:49;;;;;;;10.00;5.28;;;-18.10;86.30;;;;;;5036689;28;20071;-84
2021/12/22 07:51:15;;;;;;;10.27;7.40;;;-18.10;86.50;;;;;;5035038;28;20059;-80
2021/12/22 07:53:41;;;;;;;18.88;9.70;;;-18.00;86.70;;;;;;5037998;28;20022;-80
2021/12/22 07:56:07;;;;;;;7.77;4.40;;;-17.90;86.60;;;;;;5037659;28;20077;-82
2021/12/22 07:58:33;;;;;;;9.45;5.63;;;-17.90;86.20;;;;;;5036164;28;20639;-82
2021/12/22 08:00:59;;;;;;;11.70;6.60;;;-17.80;86.40;;;;;;5035438;28;20105;-81
2021/12/22 08:03:26;;;;;;;14.20;5.57;;;-17.70;87.10;;;;;;5035459;28;20160;-85
2021/12/22 08:05:52;;;;;;;10.73;3.50;;;-17.50;87.60;;;;;;5035355;28;20048;-82
2021/12/22 08:08:18;;;;;;;8.38;5.68;;;-17.30;87.00;;;;;;5035146;28;20101;-82
2021/12/22 08:10:48;;;;;;;14.07;7.13;;;-17.10;86.50;;;;;;5054172;28;20037;-83
2021/12/22 08:13:15;;;;;;;11.00;5.88;;;-16.90;86.50;;;;;;5055966;28;20032;-82
2021/12/22 08:15:42;;;;;;;10.45;4.97;;;-16.60;86.60;;;;;;5056285;28;20062;-83
2021/12/22 08:18:08;;;;;;;14.13;7.95;;;-16.30;86.50;;;;;;5056017;28;20021;-83
2021/12/22 08:20:34;;;;;;;17.27;6.47;;;-16.10;85.70;;;;;;5059327;28;20029;-82
2021/12/22 08:23:00;;;;;;;10.18;6.10;;;-16.00;83.30;;;;;;5063364;28;20072;-84
2021/12/22 08:25:26;;;;;;;9.80;4.63;;;-16.00;83.10;;;;;;5060224;28;20032;-83
2021/12/22 08:27:52;;;;;;;10.95;5.30;;;-15.90;82.70;;;;;;5059809;28;20025;-84
2021/12/22 08:30:18;;;;;;;11.43;7.10;;;-15.80;82.30;;;;;;5058360;28;20032;-83
2021/12/22 08:32:44;;;;;;;7.90;4.32;;;-15.80;81.70;;;;;;5056127;28;20261;-85
2021/12/22 08:35:11;;;;;;;13.23;5.50;;;-15.70;81.30;;;;;;5054446;28;20029;-80
2021/12/22 08:40:23;;;;;;;8.60;3.50;;;-15.80;81.00;;;;;;5054014;28;20178;-82
2021/12/22 08:42:49;;;;;;;11.10;4.78;;;-15.90;80.60;;;;;;5054070;28;20521;-82
2021/12/22 08:45:17;;;;;;;;;;;-15.90;80.30;;;;;;5052939;28;20029;-83
2021/12/22 08:47:44;;;;;;;10.32;6.25;;;-16.00;80.50;;;;;;5053826;28;20254;-82
2021/12/22 08:50:12;;;;;;;4.38;3.17;;;-16.00;80.40;;;;;;5053131;28;20037;-81
2021/12/22 08:52:38;;;;;;;5.18;3.53;;;-16.10;80.50;;;;;;5055705;28;20017;-82
2021/12/22 08:55:04;;;;;;;5.80;4.18;;;-16.20;80.10;;;;;;5054245;28;20021;-82
2021/12/22 08:57:30;;;;;;;10.27;5.28;;;-16.30;80.00;;;;;;5053867;28;20021;-82
2021/12/22 08:59:56;;;;;;;5.47;3.70;;;-16.40;80.20;;;;;;5053355;28;20025;-82
2021/12/22 09:02:23;;;;;;;7.07;3.60;;;-16.40;80.30;;;;;;5053066;28;20029;-81
2021/12/22 09:04:48;;;;;;;9.88;5.93;;;-16.50;79.90;;;;;;5054397;28;20466;-87
2021/12/22 09:07:14;;;;;;;11.27;7.57;;;-16.50;80.20;;;;;;5052299;28;20082;-83
2021/12/22 09:09:40;;;;;;;5.93;5.30;;;-16.60;80.00;;;;;;5034826;28;20028;-83
2021/12/22 09:12:08;;;;;;;11.53;6.50;;;-16.60;80.20;;;;;;5053504;28;20067;-84
2021/12/22 09:14:34;;;;;;;19.63;5.38;;;-16.50;80.50;;;;;;5056538;28;20029;-81
2021/12/22 09:17:00;;;;;;;7.60;5.05;;;-16.40;81.00;;;;;;5058308;28;20021;-82
2021/12/22 09:19:26;;;;;;;9.07;4.57;;;-16.30;80.90;;;;;;5057141;28;20056;-84
2021/12/22 09:21:52;;;;;;;13.07;4.95;;;-16.20;80.80;;;;;;5059808;28;20032;-82
2021/12/22 09:24:19;;;;;;;7.40;4.73;;;-16.10;81.10;;;;;;5058353;28;20033;-85
2021/12/22 09:26:45;;;;;;;5.53;3.60;;;-15.90;81.00;;;;;;5057486;28;20025;-81
2021/12/22 09:29:11;;;;;;;6.75;4.03;;;-15.80;80.70;;;;;;5057814;28;20091;-81
2021/12/22 09:31:37;;;;;;;18.63;7.97;;;-15.70;80.80;;;;;;5056463;28;20037;-81
2021/12/22 09:34:04;;;;;;;12.73;4.25;;;-15.70;80.10;;;;;;5058463;28;20051;-81
2021/12/22 09:36:30;;;;;;;;;;;-15.70;79.30;;;;;;5058892;28;20029;-82
2021/12/22 09:38:56;;;;;;;7.50;4.50;;;-15.90;77.80;;;;;;5057113;28;20332;-83
2021/12/22 09:41:21;;;;;;;3.63;2.77;;;-16.10;77.60;;;;;;5057821;28;20045;-83
2021/12/22 09:43:51;;;;;;;5.73;4.20;;;-16.20;77.60;;;;;;5056303;28;20044;-82
2021/12/22 09:46:20;;;;;;;10.98;5.72;;;-16.30;78.00;;;;;;5058651;28;20075;-81
2021/12/22 09:53:52;;;;;;;11.00;4.10;;;-16.80;78.30;;;;;;5057396;28;20033;-81
2021/12/22 09:56:24;;;;;;;10.02;5.85;;;-16.80;78.80;;;;;;5058241;28;20521;-83
2021/12/22 09:58:51;;;;;;;10.32;4.47;;;-16.80;79.20;;;;;;5057791;28;20025;-82
2021/12/22 10:01:23;;;;;;;9.48;5.68;;;-16.80;79.00;;;;;;5058374;28;20033;-84
2021/12/22 10:03:58;;;;;;;7.82;5.53;;;-16.80;79.10;;;;;;5058170;28;20104;-82
2021/12/22 10:06:25;;;;;;;7.68;4.88;;;-16.60;79.90;;;;;;5054969;28;20432;-82
2021/12/22 10:08:53;;;;;;;13.93;6.65;;;-16.40;81.00;;;;;;5036100;28;20029;-78
2021/12/22 10:11:19;;;;;;;10.73;5.82;;;-16.10;80.90;;;;;;5050212;28;20116;-79
2021/12/22 10:13:45;;;;;;;5.03;4.00;;;-15.90;79.80;;;;;;5053875;28;20021;-79
2021/12/22 10:16:12;;;;;;;9.87;8.07;;;-15.90;78.80;;;;;;5055164;28;20036;-80
2021/12/22 10:18:38;;;;;;;12.13;5.38;;;-15.90;78.40;;;;;;5054972;28;20025;-79
2021/12/22 10:21:16;;;;;;;7.17;3.63;;;-15.90;78.10;;;;;;5055204;28;20082;-79
2021/12/22 10:23:51;;;;;;;9.23;5.25;;;-15.90;78.50;;;;;;5055009;28;20474;-78
2021/12/22 10:26:28;;;;;;;13.60;7.03;;;-15.90;78.80;;;;;;5054454;28;20110;-80
2021/12/22 10:28:59;;;;;;;5.25;4.57;;;-15.90;78.50;;;;;;5055816;28;20051;-77
2021/12/22 10:31:38;;;;;;;4.90;4.15;;;-16.00;77.60;;;;;;5058414;28;20033;-78
2021/12/22 10:34:17;;;;;;;7.90;4.55;;;-16.10;77.70;;;;;;5060962;28;20071;-78
2021/12/22 10:36:47;;;;;;;6.88;4.28;;;-16.20;77.20;;;;;;5058242;28;20116;-80
2021/12/22 10:39:33;;;;;;;9.02;4.85;;;-16.40;77.20;;;;;;5054209;28;20401;-77
2021/12/22 10:42:07;;;;;;;5.90;4.73;;;-16.50;77.60;;;;;;5055285;28;20044;-80
2021/12/22 10:44:36;;;;;;;4.80;3.15;;;-16.70;77.60;;;;;;5054552;28;20032;-79
2021/12/22 10:47:33;;;;;;;4.15;3.20;;;-16.80;77.90;;;;;;5054729;28;20516;-78
2021/12/22 10:50:01;;;;;;;4.30;3.25;;;-16.80;78.30;;;;;;5054789;28;20362;-80
2021/12/22 10:52:27;;;;;;;9.55;4.35;;;-16.90;78.80;;;;;;5053856;28;20029;-80
2021/12/22 10:55:13;;;;;;;16.05;6.47;;;-16.90;79.30;;;;;;5055207;28;20032;-81
2021/12/22 10:57:42;;;;;;;8.70;5.75;;;-17.00;79.30;;;;;;5055339;28;20029;-79
2021/12/22 11:00:26;;;;;;;4.10;2.08;;;-17.00;79.60;;;;;;5053500;28;20017;-79
2021/12/22 11:03:09;;;;;;;9.73;5.95;;;-17.10;79.60;;;;;;5054414;28;20114;-80
2021/12/22 11:05:47;;;;;;;8.57;5.03;;;-17.00;80.30;;;;;;5048324;28;20036;-78
2021/12/22 11:08:20;;;;;;;4.07;2.88;;;-17.00;80.80;;;;;;5035278;28;20169;-78
2021/12/22 11:10:47;;;;;;;11.20;7.38;;;-17.00;80.60;;;;;;5044984;28;20041;-79
2021/12/22 11:13:21;;;;;;;9.90;6.93;;;-17.00;80.80;;;;;;5056751;28;20031;-80
2021/12/22 11:15:47;;;;;;;10.85;5.45;;;-17.00;80.20;;;;;;5058746;28;20021;-79
2021/12/22 11:18:27;;;;;;;9.20;5.13;;;-17.10;79.90;;;;;;5064350;28;20472;-80
2021/12/22 11:21:28;;;;;;;10.05;3.15;;;-17.10;80.30;;;;;;5058426;28;20092;-80
2021/12/22 11:24:00;;;;;;;11.85;6.85;;;-17.10;80.80;;;;;;5054406;28;20028;-81
2021/12/22 11:26:28;;;;;;;8.77;5.10;;;-17.00;81.50;;;;;;5054190;28;20025;-80
2021/12/22 11:28:54;;;;;;;5.30;3.25;;;-17.00;81.50;;;;;;5054073;28;20025;-79
2021/12/22 11:31:20;;;;;;;4.50;2.75;;;-17.00;81.80;;;;;;5053752;28;20032;-79
2021/12/22 11:33:47;;;;;;;5.60;4.40;;;-16.90;81.90;;;;;;5053924;28;20484;-79
2021/12/22 11:36:14;;;;;;;6.22;3.95;;;-16.90;81.40;;;;;;5052997;28;20029;-79
2021/12/22 11:38:43;;;;;;;7.68;3.72;;;-17.00;80.90;;;;;;5056007;28;20057;-79
2021/12/22 11:43:37;;;;;;;9.00;5.90;;;-17.10;81.10;;;;;;5053432;28;20588;-79
2021/12/22 11:46:04;;;;;;;8.57;5.00;;;-17.10;81.30;;;;;;5053617;28;20060;-79
2021/12/22 11:48:30;;;;;;;18.02;8.32;;;-17.10;80.90;;;;;;5053573;28;20584;-79
2021/12/22 11:50:56;;;;;;;;;;;-17.20;80.70;;;;;;5053628;28;20431;-79
2021/12/22 11:53:23;;;;;;;4.85;3.13;;;-17.20;81.00;;;;;;5053249;28;20004;-79
2021/12/22 11:55:50;;;;;;;;;;;-17.20;80.90;;;;;;5053723;28;20036;-80
2021/12/22 11:58:31;;;;;;;7.22;5.50;;;-17.30;81.00;;;;;;5052268;28;19928;-79
2021/12/22 12:00:57;;;;;;;7.43;5.22;;;-17.30;80.90;;;;;;5052931;28;20025;-79
2021/12/22 12:03:31;;;;;;;4.67;3.37;;;-17.40;80.80;;;;;;5053077;28;20025;-79
2021/12/22 12:06:17;;;;;;;9.20;4.65;;;-17.50;80.80;;;;;;5036353;28;20091;-78
2021/12/22 12:08:48;;;;;;;10.75;7.03;;;-17.60;80.80;;;;;;5033460;28;20028;-79
2021/12/22 12:11:18;;;;;;;6.75;4.65;;;-17.60;81.10;;;;;;5046999;28;20040;-79
2021/12/22 12:14:00;;;;;;;7.25;4.55;;;-17.70;81.10;;;;;;5053158;28;20013;-78
2021/12/22 12:22:28;;;;;;;10.98;5.35;;;-17.90;81.00;;;;;;5053329;28;20099;-78
2021/12/22 12:24:54;;;;;;;8.20;5.53;;;-17.90;80.80;;;;;;5052664;28;20028;-81
2021/12/22 12:27:39;;;;;;;9.07;5.93;;;-18.00;80.90;;;;;;5052983;28;20025;-80
2021/12/22 12:30:05;;;;;;;8.25;5.15;;;-18.00;81.00;;;;;;5053053;28;20367;-79
2021/12/22 12:32:40;;;;;;;8.55;3.67;;;-18.10;81.30;;;;;;5053570;28;20032;-80
2021/12/22 12:35:22;;;;;;;6.60;4.30;;;-18.10;81.60;;;;;;5053848;28;20032;-79
2021/12/22 12:38:15;;;;;;;9.13;5.18;;;-18.10;82.00;;;;;;5058835;28;20031;-79
2021/12/22 12:41:11;;;;;;;9.70;7.65;;;-18.10;82.50;;;;;;5059746;28;20074;-79
2021/12/22 12:46:29;;;;;;;4.32;2.63;;;-18.10;83.20;;;;;;5053141;28;20266;-79
2021/12/22 12:49:04;;;;;;;13.77;5.65;;;-18.10;83.20;;;;;;5054769;28;20024;-79
2021/12/22 12:51:35;;;;;;;4.57;3.05;;;-18.10;83.20;;;;;;5057365;28;20405;-80
2021/12/22 12:54:03;;;;;;;6.32;4.63;;;-18.10;82.70;;;;;;5066446;28;20056;-80
2021/12/22 12:56:34;;;;;;;11.60;7.47;;;-18.10;82.90;;;;;;5066049;28;20025;-80
2021/12/22 12:59:06;;;;;;;5.35;2.50;;;-18.10;82.70;;;;;;5058288;28;20094;-80
2021/12/22 13:01:47;;;;;;;9.75;6.18;;;-18.20;82.70;;;;;;5058752;28;20445;-77
2021/12/22 13:04:26;;;;;;;6.18;3.63;;;-18.10;83.10;;;;;;5043592;28;20486;-80
2021/12/22 13:07:02;;;;;;;17.33;6.82;;;-18.20;82.90;;;;;;5035563;28;20033;-78
2021/12/22 13:09:32;;;;;;;;;;;-18.20;83.10;;;;;;5035909;28;20025;-80
2021/12/22 13:17:30;;;;;;;2.90;2.75;;;-18.40;82.50;;;;;;5037003;28;20052;-79
2021/12/22 13:19:57;;;;;;;5.10;3.85;;;-18.40;82.70;;;;;;5036771;28;20090;-79
2021/12/22 13:22:27;;;;;;;6.28;4.18;;;-18.40;83.10;;;;;;5036630;28;20479;-79